sensor_id;sensor_type;location;lat;lon;timestamp;P1;durP1;ratioP1;P2;durP2;ratioP2
53644;SDS011;39547;45.554;12.068;2022-07-05T00:01:47;10.48;;;2.80;;
53644;SDS011;39547;45.554;12.068;2022-07-05T00:07:48;9.90;;;2.70;;
53644;SDS011;39547;45.554;12.068;2022-07-05T00:13:50;10.55;;;2.75;;
53644;SDS011;39547;45.554;12.068;2022-07-05T00:19:51;11.07;;;2.80;;
53644;SDS011;39547;45.554;12.068;2022-07-05T00:25:53;11.40;;;3.10;;
53644;SDS011;39547;45.554;12.068;2022-07-05T00:31:54;11.45;;;3.25;;
53644;SDS011;39547;45.554;12.068;2022-07-05T00:37:56;10.65;;;3.00;;
53644;SDS011;39547;45.554;12.068;2022-07-05T00:44:02;11.15;;;3.00;;
53644;SDS011;39547;45.554;12.068;2022-07-05T00:50:05;10.73;;;3.10;;
53644;SDS011;39547;45.554;12.068;2022-07-05T00:56:07;11.38;;;3.10;;
53644;SDS011;39547;45.554;12.068;2022-07-05T01:02:09;10.52;;;3.00;;
53644;SDS011;39547;45.554;12.068;2022-07-05T01:08:10;10.60;;;2.90;;
53644;SDS011;39547;45.554;12.068;2022-07-05T01:14:18;10.10;;;2.67;;
53644;SDS011;39547;45.554;12.068;2022-07-05T01:20:21;9.32;;;2.60;;
53644;SDS011;39547;45.554;12.068;2022-07-05T01:26:22;10.80;;;2.65;;
53644;SDS011;39547;45.554;12.068;2022-07-05T01:32:24;10.43;;;2.70;;
53644;SDS011;39547;45.554;12.068;2022-07-05T01:38:25;12.35;;;2.90;;
53644;SDS011;39547;45.554;12.068;2022-07-05T01:44:27;9.75;;;2.70;;
53644;SDS011;39547;45.554;12.068;2022-07-05T01:50:31;10.40;;;2.60;;
53644;SDS011;39547;45.554;12.068;2022-07-05T01:56:37;9.35;;;2.47;;
53644;SDS011;39547;45.554;12.068;2022-07-05T02:02:40;8.63;;;2.45;;
53644;SDS011;39547;45.554;12.068;2022-07-05T02:08:42;10.73;;;2.53;;
53644;SDS011;39547;45.554;12.068;2022-07-05T02:14:45;10.25;;;2.60;;
53644;SDS011;39547;45.554;12.068;2022-07-05T02:20:50;10.13;;;2.60;;
53644;SDS011;39547;45.554;12.068;2022-07-05T02:26:51;11.70;;;2.95;;
53644;SDS011;39547;45.554;12.068;2022-07-05T02:32:53;9.55;;;2.55;;
53644;SDS011;39547;45.554;12.068;2022-07-05T02:38:55;11.45;;;2.92;;
53644;SDS011;39547;45.554;12.068;2022-07-05T02:44:57;11.75;;;2.70;;
53644;SDS011;39547;45.554;12.068;2022-07-05T02:50:59;11.07;;;2.60;;
53644;SDS011;39547;45.554;12.068;2022-07-05T02:57:01;8.63;;;2.42;;
53644;SDS011;39547;45.554;12.068;2022-07-05T03:03:03;9.30;;;2.72;;
53644;SDS011;39547;45.554;12.068;2022-07-05T03:09:06;10.38;;;2.70;;
53644;SDS011;39547;45.554;12.068;2022-07-05T03:15:09;10.40;;;2.80;;
53644;SDS011;39547;45.554;12.068;2022-07-05T03:21:10;11.00;;;2.90;;
53644;SDS011;39547;45.554;12.068;2022-07-05T03:27:12;10.70;;;3.13;;
53644;SDS011;39547;45.554;12.068;2022-07-05T03:33:15;11.52;;;2.90;;
53644;SDS011;39547;45.554;12.068;2022-07-05T03:39:19;11.00;;;2.90;;
53644;SDS011;39547;45.554;12.068;2022-07-05T03:45:22;12.63;;;3.05;;
53644;SDS011;39547;45.554;12.068;2022-07-05T03:51:23;11.35;;;3.00;;
53644;SDS011;39547;45.554;12.068;2022-07-05T03:57:26;14.07;;;4.03;;
53644;SDS011;39547;45.554;12.068;2022-07-05T04:03:29;13.17;;;4.00;;
53644;SDS011;39547;45.554;12.068;2022-07-05T04:09:32;11.63;;;3.50;;
53644;SDS011;39547;45.554;12.068;2022-07-05T04:15:34;11.00;;;3.30;;
53644;SDS011;39547;45.554;12.068;2022-07-05T04:21:37;11.70;;;3.30;;
53644;SDS011;39547;45.554;12.068;2022-07-05T04:27:39;11.90;;;3.88;;
53644;SDS011;39547;45.554;12.068;2022-07-05T04:33:42;13.10;;;3.70;;
53644;SDS011;39547;45.554;12.068;2022-07-05T04:39:46;11.27;;;3.58;;
53644;SDS011;39547;45.554;12.068;2022-07-05T04:45:47;13.10;;;3.80;;
53644;SDS011;39547;45.554;12.068;2022-07-05T04:51:49;13.80;;;4.13;;
53644;SDS011;39547;45.554;12.068;2022-07-05T04:57:51;11.55;;;3.40;;
53644;SDS011;39547;45.554;12.068;2022-07-05T05:03:52;12.68;;;3.83;;
53644;SDS011;39547;45.554;12.068;2022-07-05T05:09:54;11.82;;;3.50;;
53644;SDS011;39547;45.554;12.068;2022-07-05T05:15:55;11.40;;;3.63;;
53644;SDS011;39547;45.554;12.068;2022-07-05T05:21:57;10.65;;;3.05;;
53644;SDS011;39547;45.554;12.068;2022-07-05T05:27:58;11.55;;;3.17;;
53644;SDS011;39547;45.554;12.068;2022-07-05T05:34:01;12.10;;;3.50;;
53644;SDS011;39547;45.554;12.068;2022-07-05T05:40:03;10.57;;;3.00;;
53644;SDS011;39547;45.554;12.068;2022-07-05T05:46:05;11.10;;;3.30;;
53644;SDS011;39547;45.554;12.068;2022-07-05T05:52:07;12.02;;;3.33;;
53644;SDS011;39547;45.554;12.068;2022-07-05T06:04:13;10.65;;;2.90;;
53644;SDS011;39547;45.554;12.068;2022-07-05T06:10:15;10.10;;;2.85;;
53644;SDS011;39547;45.554;12.068;2022-07-05T06:16:20;9.90;;;2.80;;
53644;SDS011;39547;45.554;12.068;2022-07-05T06:22:21;11.30;;;2.80;;
53644;SDS011;39547;45.554;12.068;2022-07-05T06:28:23;10.70;;;2.83;;
53644;SDS011;39547;45.554;12.068;2022-07-05T06:34:24;12.52;;;2.70;;
53644;SDS011;39547;45.554;12.068;2022-07-05T06:40:29;11.35;;;2.67;;
53644;SDS011;39547;45.554;12.068;2022-07-05T06:46:32;9.65;;;2.70;;
53644;SDS011;39547;45.554;12.068;2022-07-05T06:52:34;10.00;;;2.70;;
53644;SDS011;39547;45.554;12.068;2022-07-05T06:58:35;9.23;;;2.58;;
53644;SDS011;39547;45.554;12.068;2022-07-05T07:04:37;9.60;;;2.65;;
53644;SDS011;39547;45.554;12.068;2022-07-05T07:10:38;9.23;;;2.45;;
53644;SDS011;39547;45.554;12.068;2022-07-05T07:16:40;9.82;;;2.70;;
53644;SDS011;39547;45.554;12.068;2022-07-05T07:22:41;9.35;;;2.60;;
53644;SDS011;39547;45.554;12.068;2022-07-05T07:28:43;8.70;;;2.50;;
53644;SDS011;39547;45.554;12.068;2022-07-05T07:34:44;8.50;;;2.30;;
53644;SDS011;39547;45.554;12.068;2022-07-05T07:40:46;11.05;;;3.05;;
53644;SDS011;39547;45.554;12.068;2022-07-05T07:46:47;11.00;;;2.90;;
53644;SDS011;39547;45.554;12.068;2022-07-05T07:52:49;12.40;;;3.45;;
53644;SDS011;39547;45.554;12.068;2022-07-05T07:58:50;11.75;;;3.28;;
53644;SDS011;39547;45.554;12.068;2022-07-05T08:04:52;13.95;;;3.40;;
53644;SDS011;39547;45.554;12.068;2022-07-05T08:10:54;12.57;;;4.05;;
53644;SDS011;39547;45.554;12.068;2022-07-05T08:16:55;13.18;;;3.92;;
53644;SDS011;39547;45.554;12.068;2022-07-05T08:22:56;12.75;;;3.83;;
53644;SDS011;39547;45.554;12.068;2022-07-05T08:29:01;13.65;;;3.78;;
53644;SDS011;39547;45.554;12.068;2022-07-05T08:35:04;12.45;;;3.70;;
53644;SDS011;39547;45.554;12.068;2022-07-05T08:41:07;11.52;;;3.40;;
53644;SDS011;39547;45.554;12.068;2022-07-05T08:47:11;11.63;;;3.65;;
53644;SDS011;39547;45.554;12.068;2022-07-05T08:53:12;12.57;;;3.53;;
53644;SDS011;39547;45.554;12.068;2022-07-05T08:59:16;11.57;;;3.63;;
53644;SDS011;39547;45.554;12.068;2022-07-05T09:05:18;11.73;;;3.50;;
53644;SDS011;39547;45.554;12.068;2022-07-05T09:11:24;12.00;;;3.58;;
53644;SDS011;39547;45.554;12.068;2022-07-05T09:17:41;12.68;;;4.05;;
53644;SDS011;39547;45.554;12.068;2022-07-05T09:23:56;10.95;;;3.25;;
53644;SDS011;39547;45.554;12.068;2022-07-05T09:29:59;11.18;;;3.40;;
53644;SDS011;39547;45.554;12.068;2022-07-05T09:36:00;11.45;;;3.63;;
53644;SDS011;39547;45.554;12.068;2022-07-05T09:48:20;11.02;;;3.65;;
53644;SDS011;39547;45.554;12.068;2022-07-05T09:54:22;13.00;;;3.70;;
53644;SDS011;39547;45.554;12.068;2022-07-05T10:00:23;12.27;;;3.50;;
53644;SDS011;39547;45.554;12.068;2022-07-05T10:06:25;12.57;;;3.50;;
53644;SDS011;39547;45.554;12.068;2022-07-05T10:12:27;10.40;;;3.30;;
53644;SDS011;39547;45.554;12.068;2022-07-05T10:18:30;11.77;;;3.60;;
53644;SDS011;39547;45.554;12.068;2022-07-05T10:24:34;12.45;;;3.95;;
53644;SDS011;39547;45.554;12.068;2022-07-05T10:30:37;11.00;;;3.80;;
53644;SDS011;39547;45.554;12.068;2022-07-05T10:36:38;11.73;;;3.53;;
53644;SDS011;39547;45.554;12.068;2022-07-05T10:42:54;10.70;;;3.60;;
53644;SDS011;39547;45.554;12.068;2022-07-05T10:49:16;10.48;;;3.10;;
53644;SDS011;39547;45.554;12.068;2022-07-05T10:55:21;13.93;;;3.30;;
53644;SDS011;39547;45.554;12.068;2022-07-05T11:13:59;10.27;;;3.10;;
53644;SDS011;39547;45.554;12.068;2022-07-05T11:26:35;11.27;;;3.50;;
53644;SDS011;39547;45.554;12.068;2022-07-05T11:32:38;9.73;;;2.90;;
53644;SDS011;39547;45.554;12.068;2022-07-05T11:45:13;11.15;;;3.10;;
53644;SDS011;39547;45.554;12.068;2022-07-05T11:51:15;10.43;;;3.00;;
53644;SDS011;39547;45.554;12.068;2022-07-05T11:57:17;9.85;;;2.95;;
53644;SDS011;39547;45.554;12.068;2022-07-05T12:03:19;9.63;;;2.83;;
53644;SDS011;39547;45.554;12.068;2022-07-05T12:09:27;10.37;;;2.90;;
53644;SDS011;39547;45.554;12.068;2022-07-05T12:15:49;9.45;;;2.72;;
53644;SDS011;39547;45.554;12.068;2022-07-05T12:21:59;10.73;;;2.80;;
53644;SDS011;39547;45.554;12.068;2022-07-05T12:28:01;10.68;;;2.80;;
53644;SDS011;39547;45.554;12.068;2022-07-05T12:34:19;10.40;;;2.78;;
53644;SDS011;39547;45.554;12.068;2022-07-05T12:40:22;10.57;;;2.80;;
53644;SDS011;39547;45.554;12.068;2022-07-05T12:46:38;10.48;;;2.78;;
53644;SDS011;39547;45.554;12.068;2022-07-05T12:53:01;9.02;;;2.70;;
53644;SDS011;39547;45.554;12.068;2022-07-05T12:59:25;10.70;;;2.80;;
53644;SDS011;39547;45.554;12.068;2022-07-05T13:05:27;11.55;;;2.90;;
53644;SDS011;39547;45.554;12.068;2022-07-05T13:11:30;11.40;;;3.05;;
53644;SDS011;39547;45.554;12.068;2022-07-05T13:17:31;11.02;;;2.80;;
53644;SDS011;39547;45.554;12.068;2022-07-05T13:23:33;9.00;;;2.47;;
53644;SDS011;39547;45.554;12.068;2022-07-05T13:29:34;11.55;;;3.10;;
53644;SDS011;39547;45.554;12.068;2022-07-05T13:35:36;11.93;;;2.80;;
53644;SDS011;39547;45.554;12.068;2022-07-05T13:41:37;12.35;;;3.00;;
53644;SDS011;39547;45.554;12.068;2022-07-05T13:47:39;11.57;;;2.85;;
53644;SDS011;39547;45.554;12.068;2022-07-05T13:53:40;10.40;;;3.10;;
53644;SDS011;39547;45.554;12.068;2022-07-05T13:59:42;11.80;;;3.10;;
53644;SDS011;39547;45.554;12.068;2022-07-05T14:05:43;10.32;;;2.90;;
53644;SDS011;39547;45.554;12.068;2022-07-05T14:17:47;10.70;;;2.90;;
53644;SDS011;39547;45.554;12.068;2022-07-05T14:23:48;10.60;;;2.80;;
53644;SDS011;39547;45.554;12.068;2022-07-05T14:29:49;11.25;;;2.80;;
53644;SDS011;39547;45.554;12.068;2022-07-05T14:35:51;10.90;;;2.83;;
53644;SDS011;39547;45.554;12.068;2022-07-05T14:41:52;10.27;;;2.95;;
53644;SDS011;39547;45.554;12.068;2022-07-05T14:47:55;12.00;;;3.00;;
53644;SDS011;39547;45.554;12.068;2022-07-05T14:53:57;11.00;;;2.83;;
53644;SDS011;39547;45.554;12.068;2022-07-05T14:59:59;10.05;;;3.10;;
53644;SDS011;39547;45.554;12.068;2022-07-05T15:06:00;10.65;;;3.13;;
53644;SDS011;39547;45.554;12.068;2022-07-05T15:12:04;11.68;;;3.30;;
53644;SDS011;39547;45.554;12.068;2022-07-05T15:18:06;11.45;;;3.33;;
53644;SDS011;39547;45.554;12.068;2022-07-05T15:24:08;11.95;;;3.40;;
53644;SDS011;39547;45.554;12.068;2022-07-05T15:30:10;11.63;;;3.22;;
53644;SDS011;39547;45.554;12.068;2022-07-05T15:36:13;11.82;;;3.22;;
53644;SDS011;39547;45.554;12.068;2022-07-05T15:42:14;10.23;;;3.10;;
53644;SDS011;39547;45.554;12.068;2022-07-05T15:48:20;11.48;;;3.33;;
53644;SDS011;39547;45.554;12.068;2022-07-05T15:54:21;10.88;;;3.30;;
53644;SDS011;39547;45.554;12.068;2022-07-05T16:00:23;10.50;;;3.28;;
53644;SDS011;39547;45.554;12.068;2022-07-05T16:06:25;10.10;;;3.13;;
53644;SDS011;39547;45.554;12.068;2022-07-05T16:12:26;10.98;;;3.20;;
53644;SDS011;39547;45.554;12.068;2022-07-05T16:18:28;11.40;;;3.30;;
53644;SDS011;39547;45.554;12.068;2022-07-05T16:24:29;11.50;;;3.20;;
53644;SDS011;39547;45.554;12.068;2022-07-05T16:30:31;11.57;;;3.30;;
53644;SDS011;39547;45.554;12.068;2022-07-05T16:36:32;10.80;;;3.30;;
53644;SDS011;39547;45.554;12.068;2022-07-05T16:42:33;11.17;;;3.30;;
53644;SDS011;39547;45.554;12.068;2022-07-05T16:48:35;11.88;;;3.70;;
53644;SDS011;39547;45.554;12.068;2022-07-05T16:54:39;12.25;;;3.15;;
53644;SDS011;39547;45.554;12.068;2022-07-05T17:00:40;12.82;;;3.28;;
53644;SDS011;39547;45.554;12.068;2022-07-05T17:06:42;15.02;;;3.13;;
53644;SDS011;39547;45.554;12.068;2022-07-05T17:12:43;10.55;;;3.00;;
53644;SDS011;39547;45.554;12.068;2022-07-05T17:18:45;10.98;;;2.80;;
53644;SDS011;39547;45.554;12.068;2022-07-05T17:24:47;13.90;;;3.20;;
53644;SDS011;39547;45.554;12.068;2022-07-05T17:30:49;11.52;;;3.05;;
53644;SDS011;39547;45.554;12.068;2022-07-05T17:36:51;12.83;;;2.70;;
53644;SDS011;39547;45.554;12.068;2022-07-05T17:42:53;13.90;;;3.10;;
53644;SDS011;39547;45.554;12.068;2022-07-05T17:48:54;10.70;;;2.80;;
53644;SDS011;39547;45.554;12.068;2022-07-05T17:54:56;11.57;;;2.70;;
53644;SDS011;39547;45.554;12.068;2022-07-05T18:00:58;10.70;;;2.60;;
53644;SDS011;39547;45.554;12.068;2022-07-05T18:06:59;11.40;;;2.80;;
53644;SDS011;39547;45.554;12.068;2022-07-05T18:13:01;11.23;;;3.22;;
53644;SDS011;39547;45.554;12.068;2022-07-05T18:19:02;12.05;;;3.53;;
53644;SDS011;39547;45.554;12.068;2022-07-05T18:25:04;10.65;;;2.80;;
53644;SDS011;39547;45.554;12.068;2022-07-05T18:31:06;12.90;;;3.53;;
53644;SDS011;39547;45.554;12.068;2022-07-05T18:37:08;10.95;;;3.22;;
53644;SDS011;39547;45.554;12.068;2022-07-05T18:43:09;10.57;;;3.20;;
53644;SDS011;39547;45.554;12.068;2022-07-05T18:49:11;10.50;;;3.10;;
53644;SDS011;39547;45.554;12.068;2022-07-05T18:55:12;11.55;;;3.60;;
53644;SDS011;39547;45.554;12.068;2022-07-05T19:01:13;10.63;;;3.30;;
53644;SDS011;39547;45.554;12.068;2022-07-05T19:07:15;11.95;;;3.58;;
53644;SDS011;39547;45.554;12.068;2022-07-05T19:13:35;10.05;;;3.05;;
53644;SDS011;39547;45.554;12.068;2022-07-05T19:19:42;10.32;;;2.97;;
53644;SDS011;39547;45.554;12.068;2022-07-05T19:25:44;10.45;;;2.92;;
53644;SDS011;39547;45.554;12.068;2022-07-05T19:31:45;10.77;;;3.10;;
53644;SDS011;39547;45.554;12.068;2022-07-05T19:37:47;10.27;;;2.70;;
53644;SDS011;39547;45.554;12.068;2022-07-05T19:43:48;10.30;;;2.60;;
53644;SDS011;39547;45.554;12.068;2022-07-05T19:49:50;10.88;;;2.70;;
53644;SDS011;39547;45.554;12.068;2022-07-05T19:55:51;9.48;;;2.50;;
53644;SDS011;39547;45.554;12.068;2022-07-05T20:01:53;10.60;;;2.90;;
53644;SDS011;39547;45.554;12.068;2022-07-05T20:07:54;10.25;;;2.50;;
53644;SDS011;39547;45.554;12.068;2022-07-05T20:13:56;9.38;;;2.60;;
53644;SDS011;39547;45.554;12.068;2022-07-05T20:19:57;8.35;;;2.40;;
53644;SDS011;39547;45.554;12.068;2022-07-05T20:25:59;9.60;;;2.42;;
53644;SDS011;39547;45.554;12.068;2022-07-05T20:32:00;8.82;;;2.40;;
53644;SDS011;39547;45.554;12.068;2022-07-05T20:38:02;8.30;;;2.38;;
53644;SDS011;39547;45.554;12.068;2022-07-05T20:44:03;9.85;;;2.47;;
53644;SDS011;39547;45.554;12.068;2022-07-05T20:50:05;8.93;;;2.50;;
53644;SDS011;39547;45.554;12.068;2022-07-05T20:56:07;9.07;;;2.50;;
53644;SDS011;39547;45.554;12.068;2022-07-05T21:02:09;9.98;;;2.45;;
53644;SDS011;39547;45.554;12.068;2022-07-05T21:08:11;8.50;;;2.33;;
53644;SDS011;39547;45.554;12.068;2022-07-05T21:14:12;9.80;;;2.50;;
53644;SDS011;39547;45.554;12.068;2022-07-05T21:20:14;9.65;;;2.50;;
53644;SDS011;39547;45.554;12.068;2022-07-05T21:26:18;9.10;;;2.45;;
53644;SDS011;39547;45.554;12.068;2022-07-05T21:32:19;9.68;;;2.53;;
53644;SDS011;39547;45.554;12.068;2022-07-05T21:38:21;9.30;;;2.60;;
53644;SDS011;39547;45.554;12.068;2022-07-05T21:44:22;8.55;;;2.40;;
53644;SDS011;39547;45.554;12.068;2022-07-05T21:50:24;8.93;;;2.30;;
53644;SDS011;39547;45.554;12.068;2022-07-05T21:56:25;8.25;;;2.30;;
53644;SDS011;39547;45.554;12.068;2022-07-05T22:02:26;8.55;;;2.50;;
53644;SDS011;39547;45.554;12.068;2022-07-05T22:08:47;8.50;;;2.50;;
53644;SDS011;39547;45.554;12.068;2022-07-05T22:14:48;9.52;;;2.70;;
53644;SDS011;39547;45.554;12.068;2022-07-05T22:20:50;10.75;;;2.78;;
53644;SDS011;39547;45.554;12.068;2022-07-05T22:26:51;9.30;;;2.50;;
53644;SDS011;39547;45.554;12.068;2022-07-05T22:32:53;9.80;;;2.53;;
53644;SDS011;39547;45.554;12.068;2022-07-05T22:38:54;8.95;;;2.40;;
53644;SDS011;39547;45.554;12.068;2022-07-05T22:44:56;8.43;;;2.42;;
53644;SDS011;39547;45.554;12.068;2022-07-05T22:50:57;8.88;;;2.40;;
53644;SDS011;39547;45.554;12.068;2022-07-05T22:56:59;8.98;;;2.40;;
53644;SDS011;39547;45.554;12.068;2022-07-05T23:03:00;12.15;;;2.47;;
53644;SDS011;39547;45.554;12.068;2022-07-05T23:09:02;9.18;;;2.58;;
53644;SDS011;39547;45.554;12.068;2022-07-05T23:15:03;8.52;;;2.30;;
53644;SDS011;39547;45.554;12.068;2022-07-05T23:21:05;11.32;;;2.80;;
53644;SDS011;39547;45.554;12.068;2022-07-05T23:33:10;10.48;;;2.70;;
53644;SDS011;39547;45.554;12.068;2022-07-05T23:39:12;9.90;;;2.95;;
53644;SDS011;39547;45.554;12.068;2022-07-05T23:45:13;9.43;;;2.67;;
53644;SDS011;39547;45.554;12.068;2022-07-05T23:51:15;10.15;;;2.65;;
53644;SDS011;39547;45.554;12.068;2022-07-05T23:57:16;9.50;;;2.75;;
